createdAt,value
2022-11-14T00:01:26.662Z,5.82
2022-11-14T00:04:48.309Z,6.05
2022-11-14T00:08:18.785Z,5.47
2022-11-14T00:11:39.528Z,6.75
2022-11-14T00:15:00.201Z,6.30
2022-11-14T00:18:21.809Z,6.30
2022-11-14T00:21:42.504Z,5.00
2022-11-14T00:25:07.477Z,5.82
2022-11-14T00:28:28.165Z,6.03
2022-11-14T00:31:48.868Z,5.20
2022-11-14T00:35:09.975Z,6.45
2022-11-14T00:38:30.513Z,6.20
2022-11-14T00:41:51.236Z,6.55
2022-11-14T00:45:12.163Z,7.05
2022-11-14T00:48:32.745Z,5.32
2022-11-14T00:51:53.501Z,6.72
2022-11-14T00:55:13.909Z,6.60
2022-11-14T00:58:36.078Z,5.72
2022-11-14T01:01:58.271Z,6.50
2022-11-14T01:05:19.083Z,6.35
2022-11-14T01:08:39.453Z,6.38
2022-11-14T01:12:00.023Z,5.63
2022-11-14T01:15:20.714Z,5.07
2022-11-14T01:18:41.563Z,5.45
2022-11-14T01:22:06.293Z,4.85
2022-11-14T01:25:26.950Z,6.03
2022-11-14T01:28:47.636Z,4.72
2022-11-14T01:32:08.456Z,5.15
2022-11-14T01:35:29.231Z,6.15
2022-11-14T01:38:53.964Z,4.93
2022-11-14T01:42:15.714Z,5.65
2022-11-14T01:45:59.132Z,5.78
2022-11-14T01:49:25.078Z,4.45
2022-11-14T01:52:46.783Z,5.60
2022-11-14T01:56:09.566Z,4.82
2022-11-14T01:59:38.353Z,4.35
2022-11-14T02:03:00.379Z,5.43
2022-11-14T02:06:24.313Z,4.90
2022-11-14T02:09:47.231Z,5.28
2022-11-14T02:13:08.710Z,5.13
2022-11-14T02:16:29.372Z,4.13
2022-11-14T02:19:53.352Z,5.63
2022-11-14T02:23:13.851Z,4.43
2022-11-14T02:26:36.766Z,4.70
2022-11-14T02:30:27.174Z,4.47
2022-11-14T02:33:47.887Z,5.07
2022-11-14T02:37:08.551Z,5.55
2022-11-14T02:40:29.217Z,5.03
2022-11-14T02:43:49.722Z,4.50
2022-11-14T02:47:10.557Z,4.95
2022-11-14T02:50:31.506Z,3.55
2022-11-14T02:53:52.191Z,3.63
2022-11-14T02:57:12.436Z,4.38
2022-11-14T03:00:32.671Z,3.13
2022-11-14T03:03:53.058Z,3.75
2022-11-14T03:07:13.584Z,4.90
2022-11-14T03:10:34.542Z,4.57
2022-11-14T03:13:55.483Z,5.00
2022-11-14T03:17:16.980Z,3.72
2022-11-14T03:20:37.520Z,3.75
2022-11-14T03:23:57.917Z,3.95
2022-11-14T03:27:18.487Z,4.65
2022-11-14T03:30:39.233Z,4.07
2022-11-14T03:34:00.051Z,3.60
2022-11-14T03:37:20.797Z,3.50
2022-11-14T03:40:41.435Z,3.53
2022-11-14T03:44:01.823Z,2.83
2022-11-14T03:47:22.598Z,3.20
2022-11-14T03:50:43.848Z,3.08
2022-11-14T03:54:04.630Z,3.38
2022-11-14T03:57:25.349Z,3.83
2022-11-14T04:00:45.813Z,4.18
2022-11-14T04:04:06.544Z,3.42
2022-11-14T04:07:27.243Z,4.05
2022-11-14T04:10:49.009Z,3.50
2022-11-14T04:14:10.482Z,4.15
2022-11-14T04:17:34.486Z,3.85
2022-11-14T04:20:57.645Z,3.40
2022-11-14T04:24:18.555Z,3.42
2022-11-14T04:27:39.200Z,4.80
2022-11-14T04:31:00.674Z,4.05
2022-11-14T04:34:21.575Z,4.38
2022-11-14T04:37:41.839Z,3.58
2022-11-14T04:41:02.165Z,3.35
2022-11-14T04:44:22.510Z,3.42
2022-11-14T04:47:43.358Z,3.30
2022-11-14T04:51:04.188Z,4.40
2022-11-14T04:54:24.620Z,4.07
2022-11-14T04:57:45.785Z,3.72
2022-11-14T05:01:11.162Z,4.75
2022-11-14T05:04:33.138Z,4.05
2022-11-14T05:07:55.292Z,3.72
2022-11-14T05:11:17.161Z,3.97
2022-11-14T05:14:37.921Z,3.60
2022-11-14T05:17:59.101Z,3.55
2022-11-14T05:21:19.512Z,4.05
2022-11-14T05:24:40.045Z,3.85
2022-11-14T05:28:02.183Z,4.20
2022-11-14T05:31:22.697Z,4.35
2022-11-14T05:34:43.458Z,4.47
2022-11-14T05:38:04.098Z,3.65
2022-11-14T05:41:24.876Z,4.47
2022-11-14T05:44:45.477Z,3.97
2022-11-14T05:48:06.436Z,3.00
2022-11-14T05:51:26.827Z,3.88
2022-11-14T05:54:47.422Z,4.20
2022-11-14T05:58:08.035Z,3.80
2022-11-14T06:01:28.865Z,3.53
2022-11-14T06:04:49.513Z,3.72
2022-11-14T06:08:10.376Z,2.97
2022-11-14T06:11:30.968Z,4.43
2022-11-14T06:14:51.296Z,4.20
2022-11-14T06:18:11.946Z,3.53
2022-11-14T06:21:32.442Z,3.97
2022-11-14T06:24:52.855Z,4.57
2022-11-14T06:28:13.475Z,4.82
2022-11-14T06:31:34.280Z,3.50
2022-11-14T06:34:56.116Z,4.95
2022-11-14T06:38:16.690Z,3.67
2022-11-14T06:41:37.408Z,3.88
2022-11-14T06:44:58.024Z,4.68
2022-11-14T06:48:18.396Z,5.97
2022-11-14T06:51:38.813Z,4.80
2022-11-14T06:54:59.082Z,4.97
2022-11-14T06:58:19.569Z,5.18
2022-11-14T07:01:40.014Z,5.25
2022-11-14T07:05:00.527Z,5.47
2022-11-14T07:08:21.436Z,6.13
2022-11-14T07:11:42.227Z,5.20
2022-11-14T07:15:03.115Z,6.95
2022-11-14T07:18:25.280Z,5.45
2022-11-14T07:21:46.048Z,5.43
2022-11-14T07:25:07.471Z,4.40
2022-11-14T07:28:28.556Z,4.63
2022-11-14T07:31:50.772Z,4.22
2022-11-14T07:35:11.506Z,4.53
2022-11-14T07:38:35.908Z,4.95
2022-11-14T07:41:57.305Z,5.30
2022-11-14T07:45:20.218Z,4.55
2022-11-14T07:48:41.321Z,5.28
2022-11-14T07:55:52.938Z,4.03
2022-11-14T07:59:13.738Z,4.90
2022-11-14T08:02:34.175Z,5.28
2022-11-14T08:06:08.589Z,4.88
2022-11-14T08:09:29.154Z,4.38
2022-11-14T08:13:17.572Z,3.45
2022-11-14T08:16:39.546Z,2.30
2022-11-14T08:20:00.390Z,3.50
2022-11-14T08:23:21.228Z,3.20
2022-11-14T08:26:42.024Z,3.63
2022-11-14T08:30:02.722Z,3.25
2022-11-14T08:33:22.911Z,3.85
2022-11-14T08:36:43.574Z,3.38
2022-11-14T08:40:04.959Z,3.35
2022-11-14T08:43:25.760Z,3.45
2022-11-14T08:46:46.533Z,3.42
2022-11-14T08:50:07.463Z,3.78
2022-11-14T08:53:28.681Z,3.40
2022-11-14T08:56:49.430Z,4.07
2022-11-14T09:00:10.740Z,3.20
2022-11-14T09:03:31.492Z,3.55
2022-11-14T09:06:52.488Z,4.50
2022-11-14T09:10:13.474Z,3.60
2022-11-14T09:13:35.302Z,3.15
2022-11-14T09:16:55.930Z,4.10
2022-11-14T09:20:16.425Z,3.67
2022-11-14T09:23:37.033Z,6.15
2022-11-14T09:26:57.433Z,4.03
2022-11-14T09:30:18.038Z,5.47
2022-11-14T09:33:43.397Z,6.30
2022-11-14T09:37:03.847Z,4.93
2022-11-14T09:40:24.243Z,5.00
2022-11-14T09:44:23.339Z,6.53
2022-11-14T09:47:59.559Z,3.83
2022-11-14T09:51:22.568Z,6.00
2022-11-14T09:54:49.348Z,4.78
2022-11-14T09:58:18.347Z,3.17
2022-11-14T10:01:41.676Z,3.90
2022-11-14T10:05:09.325Z,4.57
2022-11-14T10:08:58.691Z,4.43
2022-11-14T10:12:44.268Z,3.78
2022-11-14T10:16:11.246Z,3.85
2022-11-14T10:19:43.039Z,3.97
2022-11-14T10:23:19.706Z,4.40
2022-11-14T10:27:07.341Z,4.00
2022-11-14T10:30:38.812Z,4.45
2022-11-14T10:34:09.356Z,4.10
2022-11-14T10:37:33.400Z,4.72
2022-11-14T10:40:59.496Z,5.80
2022-11-14T10:44:28.108Z,5.22
2022-11-14T10:47:56.236Z,6.35
2022-11-14T10:51:26.659Z,5.30
2022-11-14T10:55:15.279Z,5.28
2022-11-14T10:58:47.958Z,6.03
2022-11-14T11:02:10.312Z,6.50
2022-11-14T11:05:31.162Z,5.47
2022-11-14T11:09:09.867Z,6.25
2022-11-14T11:12:42.559Z,6.00
2022-11-14T11:16:05.047Z,6.30
2022-11-14T11:19:27.807Z,6.20
2022-11-14T11:22:48.443Z,6.20
2022-11-14T11:26:25.646Z,5.15
2022-11-14T11:29:47.282Z,5.78
2022-11-14T11:33:24.540Z,5.53
2022-11-14T11:36:50.536Z,6.03
2022-11-14T11:40:17.746Z,5.35
2022-11-14T11:43:57.040Z,5.63
2022-11-14T11:47:19.610Z,6.60
2022-11-14T11:50:42.475Z,6.32
2022-11-14T11:54:12.263Z,6.38
2022-11-14T11:57:37.102Z,5.68
2022-11-14T12:00:58.278Z,5.10
2022-11-14T12:04:19.050Z,5.70
2022-11-14T12:07:51.048Z,5.15
2022-11-14T12:11:17.252Z,5.07
2022-11-14T12:15:04.434Z,5.38
2022-11-14T12:18:57.790Z,5.85
2022-11-14T12:22:51.725Z,5.45
2022-11-14T12:26:33.465Z,4.63
2022-11-14T12:30:19.150Z,4.45
2022-11-14T12:34:00.395Z,5.68
2022-11-14T12:37:27.117Z,5.90
2022-11-14T12:40:54.500Z,5.75
2022-11-14T12:44:39.065Z,6.75
2022-11-14T12:48:27.427Z,6.22
2022-11-14T12:51:51.519Z,7.38
2022-11-14T12:55:24.624Z,5.53
2022-11-14T12:59:12.441Z,5.10
2022-11-14T13:03:08.274Z,7.03
2022-11-14T13:06:44.005Z,6.63
2022-11-14T13:10:14.489Z,6.78
2022-11-14T13:14:20.195Z,5.85
2022-11-14T13:18:01.656Z,5.97
2022-11-14T13:25:06.762Z,6.80
2022-11-14T13:28:36.499Z,7.28
2022-11-14T13:31:57.321Z,7.07
2022-11-14T13:35:49.379Z,6.07
2022-11-14T13:39:09.993Z,7.22
2022-11-14T13:42:42.482Z,6.60
2022-11-14T13:46:34.334Z,6.97
2022-11-14T13:50:04.571Z,9.00
2022-11-14T13:53:29.769Z,16.90
2022-11-14T13:56:57.955Z,15.40
2022-11-14T14:00:21.033Z,12.15
2022-11-14T14:04:09.223Z,16.63
2022-11-14T14:07:55.753Z,18.20
2022-11-14T14:11:25.483Z,6.47
2022-11-14T14:15:07.455Z,7.28
2022-11-14T14:19:03.644Z,6.55
2022-11-14T14:22:33.654Z,7.32
2022-11-14T14:26:14.121Z,7.57
2022-11-14T14:33:09.635Z,7.60
2022-11-14T14:36:31.240Z,9.07
2022-11-14T14:40:02.108Z,9.80
2022-11-14T14:44:18.592Z,8.20
2022-11-14T14:48:15.902Z,8.02
2022-11-14T14:51:38.385Z,8.40
2022-11-14T14:55:02.621Z,8.50
2022-11-14T14:58:23.144Z,10.70
2022-11-14T15:01:44.512Z,11.90
2022-11-14T15:05:06.474Z,11.73
2022-11-14T15:08:33.823Z,12.50
2022-11-14T15:15:42.461Z,11.77
2022-11-14T15:19:04.755Z,10.95
2022-11-14T15:22:30.056Z,10.98
2022-11-14T15:26:09.518Z,12.52
2022-11-14T15:29:33.579Z,10.85
2022-11-14T15:33:18.722Z,10.82
2022-11-14T15:37:19.515Z,10.52
2022-11-14T15:41:28.760Z,10.35
2022-11-14T15:44:51.057Z,10.35
2022-11-14T15:48:19.963Z,10.82
2022-11-14T15:51:46.471Z,12.43
2022-11-14T15:55:24.776Z,12.80
2022-11-14T15:58:50.430Z,12.18
2022-11-14T16:02:11.148Z,12.38
2022-11-14T16:05:34.642Z,14.25
2022-11-14T16:08:56.859Z,15.95
2022-11-14T16:12:23.284Z,14.55
2022-11-14T16:15:45.829Z,18.67
2022-11-14T16:19:07.491Z,20.42
2022-11-14T16:22:32.509Z,21.55
2022-11-14T16:25:53.606Z,21.67
2022-11-14T16:29:21.687Z,21.30
2022-11-14T16:32:47.214Z,22.30
2022-11-14T16:36:11.874Z,22.27
2022-11-14T16:39:32.322Z,22.65
2022-11-14T16:43:03.499Z,23.35
2022-11-14T16:46:30.144Z,16.08
2022-11-14T16:49:52.852Z,24.40
2022-11-14T16:53:15.726Z,24.83
2022-11-14T16:56:36.439Z,26.02
2022-11-14T16:59:58.906Z,26.88
2022-11-14T17:03:19.659Z,26.65
2022-11-14T17:06:40.389Z,26.27
2022-11-14T17:10:08.477Z,29.67
2022-11-14T17:13:34.026Z,28.63
2022-11-14T17:17:16.957Z,28.67
2022-11-14T17:21:08.415Z,29.83
2022-11-14T17:25:46.711Z,30.27
2022-11-14T17:29:09.741Z,27.65
2022-11-14T17:32:56.358Z,19.10
2022-11-14T17:36:20.299Z,24.38
2022-11-14T17:39:41.198Z,26.85
2022-11-14T17:43:01.821Z,16.67
2022-11-14T17:46:23.701Z,26.38
2022-11-14T17:49:45.945Z,27.27
2022-11-14T17:53:06.541Z,25.40
2022-11-14T17:56:29.619Z,28.80
2022-11-14T17:59:55.944Z,27.65
2022-11-14T18:03:22.722Z,26.90
2022-11-14T18:06:47.467Z,27.30
2022-11-14T18:10:08.921Z,24.27
2022-11-14T18:13:29.252Z,23.85
2022-11-14T18:17:11.591Z,22.98
2022-11-14T18:20:31.100Z,21.02
2022-11-14T18:23:54.004Z,21.13
2022-11-14T18:27:14.569Z,24.38
2022-11-14T18:30:41.360Z,25.90
2022-11-14T18:34:03.143Z,22.70
2022-11-14T18:37:24.119Z,23.77
2022-11-14T18:40:45.219Z,22.75
2022-11-14T18:44:05.849Z,26.38
2022-11-14T18:47:26.740Z,24.52
2022-11-14T18:50:48.501Z,26.67
2022-11-14T18:54:14.589Z,22.52
2022-11-14T18:57:35.255Z,24.40
2022-11-14T19:00:57.556Z,23.17
2022-11-14T19:04:19.776Z,23.80
2022-11-14T19:07:40.297Z,26.63
2022-11-14T19:11:30.886Z,24.27
2022-11-14T19:14:51.943Z,26.25
2022-11-14T19:18:12.727Z,26.13
2022-11-14T19:21:33.757Z,24.88
2022-11-14T19:24:54.241Z,23.77
2022-11-14T19:28:14.941Z,23.35
2022-11-14T19:31:36.245Z,24.73
2022-11-14T19:34:56.928Z,23.45
2022-11-14T19:38:17.573Z,24.63
2022-11-14T19:41:38.895Z,24.02
2022-11-14T19:44:59.591Z,25.30
2022-11-14T19:48:20.232Z,23.13
2022-11-14T19:51:44.683Z,18.45
2022-11-14T19:55:05.441Z,15.40
2022-11-14T19:58:28.055Z,17.80
2022-11-14T20:01:56.461Z,15.65
2022-11-14T20:05:17.448Z,15.48
2022-11-14T20:08:37.743Z,15.85
2022-11-14T20:11:59.966Z,17.52
2022-11-14T20:15:20.603Z,17.30
2022-11-14T20:18:47.101Z,19.02
2022-11-14T20:22:16.103Z,18.95
2022-11-14T20:25:41.474Z,18.77
2022-11-14T20:29:09.282Z,19.15
2022-11-14T20:32:32.599Z,17.30
2022-11-14T20:35:55.179Z,17.45
2022-11-14T20:39:16.371Z,16.60
2022-11-14T20:42:38.233Z,17.08
2022-11-14T20:46:04.765Z,16.70
2022-11-14T20:49:26.726Z,17.15
2022-11-14T20:52:49.307Z,15.30
2022-11-14T20:56:12.796Z,16.40
2022-11-14T20:59:33.627Z,14.68
2022-11-14T21:03:00.041Z,17.23
2022-11-14T21:06:20.877Z,24.67
2022-11-14T21:09:41.492Z,26.63
2022-11-14T21:13:25.777Z,25.50
2022-11-14T21:16:46.562Z,27.15
2022-11-14T21:20:08.174Z,27.92
2022-11-14T21:23:29.132Z,26.73
2022-11-14T21:26:49.598Z,25.63
2022-11-14T21:30:10.302Z,22.42
2022-11-14T21:33:32.867Z,24.42
2022-11-14T21:36:53.683Z,24.85
2022-11-14T21:40:14.025Z,27.13
2022-11-14T21:43:35.121Z,26.30
2022-11-14T21:46:55.610Z,25.17
2022-11-14T21:50:18.223Z,24.05
2022-11-14T21:53:40.413Z,24.15
2022-11-14T21:57:04.327Z,24.77
2022-11-14T22:00:29.273Z,24.75
2022-11-14T22:04:08.287Z,23.65
2022-11-14T22:07:30.804Z,24.10
2022-11-14T22:10:51.703Z,24.70
2022-11-14T22:14:13.482Z,22.63
2022-11-14T22:17:33.980Z,22.08
2022-11-14T22:20:59.890Z,24.60
2022-11-14T22:24:20.674Z,23.75
2022-11-14T22:27:41.238Z,21.55
2022-11-14T22:31:19.460Z,21.80
2022-11-14T22:34:39.971Z,21.30
2022-11-14T22:38:04.968Z,24.77
2022-11-14T22:41:32.230Z,22.95
2022-11-14T22:44:53.606Z,23.27
2022-11-14T22:48:14.011Z,22.70
2022-11-14T22:51:36.649Z,23.42
2022-11-14T22:54:57.340Z,23.90
2022-11-14T22:58:18.057Z,24.10
2022-11-14T23:01:38.729Z,22.20
2022-11-14T23:04:59.378Z,21.90
2022-11-14T23:08:20.911Z,23.55
2022-11-14T23:11:41.469Z,23.38
2022-11-14T23:15:02.346Z,21.77
2022-11-14T23:18:24.169Z,23.25
2022-11-14T23:21:45.426Z,22.10
2022-11-14T23:25:06.433Z,21.65
2022-11-14T23:28:31.240Z,21.25
2022-11-14T23:31:53.431Z,19.65
2022-11-14T23:35:14.190Z,20.83
2022-11-14T23:38:35.017Z,18.92
2022-11-14T23:41:55.711Z,19.88
2022-11-14T23:45:17.943Z,21.08
2022-11-14T23:48:40.359Z,21.83
2022-11-14T23:52:01.971Z,18.63
2022-11-14T23:55:22.654Z,19.75
2022-11-14T23:58:43.223Z,20.88
